sensor_id;sensor_type;location;lat;lon;timestamp;P1;durP1;ratioP1;P2;durP2;ratioP2
67839;SDS011;54636;51.684;5.142;2023-05-10T00:02:24;34.75;;;20.42;;
67839;SDS011;54636;51.684;5.142;2023-05-10T00:04:50;35.33;;;21.48;;
67839;SDS011;54636;51.684;5.142;2023-05-10T00:07:15;34.42;;;20.80;;
67839;SDS011;54636;51.684;5.142;2023-05-10T00:09:42;35.08;;;19.48;;
67839;SDS011;54636;51.684;5.142;2023-05-10T00:12:08;30.38;;;19.42;;
67839;SDS011;54636;51.684;5.142;2023-05-10T00:14:33;34.58;;;20.20;;
67839;SDS011;54636;51.684;5.142;2023-05-10T00:16:59;38.58;;;19.52;;
67839;SDS011;54636;51.684;5.142;2023-05-10T00:19:24;30.65;;;19.55;;
67839;SDS011;54636;51.684;5.142;2023-05-10T00:21:50;38.60;;;21.27;;
67839;SDS011;54636;51.684;5.142;2023-05-10T00:24:15;38.80;;;20.65;;
67839;SDS011;54636;51.684;5.142;2023-05-10T00:26:41;35.50;;;20.83;;
67839;SDS011;54636;51.684;5.142;2023-05-10T00:29:07;42.90;;;20.92;;
67839;SDS011;54636;51.684;5.142;2023-05-10T00:31:32;39.70;;;20.85;;
67839;SDS011;54636;51.684;5.142;2023-05-10T00:33:58;37.85;;;19.75;;
67839;SDS011;54636;51.684;5.142;2023-05-10T00:36:23;44.50;;;20.77;;
67839;SDS011;54636;51.684;5.142;2023-05-10T00:38:49;46.33;;;21.50;;
67839;SDS011;54636;51.684;5.142;2023-05-10T00:41:14;44.25;;;22.60;;
67839;SDS011;54636;51.684;5.142;2023-05-10T00:43:40;41.53;;;20.98;;
67839;SDS011;54636;51.684;5.142;2023-05-10T00:46:06;43.17;;;22.08;;
67839;SDS011;54636;51.684;5.142;2023-05-10T00:48:32;48.70;;;23.25;;
67839;SDS011;54636;51.684;5.142;2023-05-10T00:50:59;39.22;;;22.27;;
67839;SDS011;54636;51.684;5.142;2023-05-10T00:53:26;49.47;;;22.83;;
67839;SDS011;54636;51.684;5.142;2023-05-10T00:55:52;40.58;;;22.33;;
67839;SDS011;54636;51.684;5.142;2023-05-10T00:58:18;49.03;;;25.13;;
67839;SDS011;54636;51.684;5.142;2023-05-10T01:00:43;47.85;;;22.77;;
67839;SDS011;54636;51.684;5.142;2023-05-10T01:03:11;46.60;;;22.65;;
67839;SDS011;54636;51.684;5.142;2023-05-10T01:05:37;43.60;;;21.63;;
67839;SDS011;54636;51.684;5.142;2023-05-10T01:08:03;50.13;;;23.33;;
67839;SDS011;54636;51.684;5.142;2023-05-10T01:10:28;47.85;;;21.08;;
67839;SDS011;54636;51.684;5.142;2023-05-10T01:12:54;46.65;;;21.58;;
67839;SDS011;54636;51.684;5.142;2023-05-10T01:15:20;46.50;;;20.67;;
67839;SDS011;54636;51.684;5.142;2023-05-10T01:17:47;47.63;;;22.13;;
67839;SDS011;54636;51.684;5.142;2023-05-10T01:20:13;51.80;;;21.95;;
67839;SDS011;54636;51.684;5.142;2023-05-10T01:22:44;49.85;;;21.05;;
67839;SDS011;54636;51.684;5.142;2023-05-10T01:33:35;38.10;;;19.20;;
67839;SDS011;54636;51.684;5.142;2023-05-10T01:39:01;45.35;;;18.75;;
67839;SDS011;54636;51.684;5.142;2023-05-10T01:47:30;40.17;;;20.73;;
67839;SDS011;54636;51.684;5.142;2023-05-10T01:50:00;44.63;;;21.88;;
67839;SDS011;54636;51.684;5.142;2023-05-10T01:52:36;42.75;;;20.77;;
67839;SDS011;54636;51.684;5.142;2023-05-10T01:55:06;44.45;;;21.08;;
67839;SDS011;54636;51.684;5.142;2023-05-10T01:57:35;45.53;;;22.50;;
67839;SDS011;54636;51.684;5.142;2023-05-10T02:00:02;44.20;;;21.75;;
67839;SDS011;54636;51.684;5.142;2023-05-10T02:02:29;39.15;;;21.50;;
67839;SDS011;54636;51.684;5.142;2023-05-10T02:05:04;49.08;;;23.60;;
67839;SDS011;54636;51.684;5.142;2023-05-10T02:07:31;46.25;;;22.92;;
67839;SDS011;54636;51.684;5.142;2023-05-10T02:10:01;42.23;;;23.67;;
67839;SDS011;54636;51.684;5.142;2023-05-10T02:12:31;51.55;;;25.45;;
67839;SDS011;54636;51.684;5.142;2023-05-10T02:15:00;54.97;;;26.73;;
67839;SDS011;54636;51.684;5.142;2023-05-10T02:17:30;60.53;;;29.13;;
67839;SDS011;54636;51.684;5.142;2023-05-10T02:19:57;65.20;;;30.50;;
67839;SDS011;54636;51.684;5.142;2023-05-10T02:22:25;65.90;;;31.08;;
67839;SDS011;54636;51.684;5.142;2023-05-10T02:24:53;73.30;;;33.22;;
67839;SDS011;54636;51.684;5.142;2023-05-10T02:27:21;81.40;;;34.72;;
67839;SDS011;54636;51.684;5.142;2023-05-10T02:29:48;72.90;;;31.70;;
67839;SDS011;54636;51.684;5.142;2023-05-10T02:32:15;65.32;;;33.17;;
67839;SDS011;54636;51.684;5.142;2023-05-10T02:40:38;75.30;;;35.47;;
67839;SDS011;54636;51.684;5.142;2023-05-10T02:43:06;79.38;;;36.97;;
67839;SDS011;54636;51.684;5.142;2023-05-10T02:45:36;73.93;;;35.42;;
67839;SDS011;54636;51.684;5.142;2023-05-10T02:48:04;68.55;;;32.67;;
67839;SDS011;54636;51.684;5.142;2023-05-10T02:50:30;76.57;;;37.28;;
67839;SDS011;54636;51.684;5.142;2023-05-10T02:53:01;75.68;;;36.53;;
67839;SDS011;54636;51.684;5.142;2023-05-10T02:55:33;67.75;;;34.78;;
67839;SDS011;54636;51.684;5.142;2023-05-10T02:58:02;74.07;;;36.28;;
67839;SDS011;54636;51.684;5.142;2023-05-10T03:00:28;77.35;;;36.72;;
67839;SDS011;54636;51.684;5.142;2023-05-10T03:02:54;64.60;;;35.35;;
67839;SDS011;54636;51.684;5.142;2023-05-10T03:05:20;73.65;;;36.40;;
67839;SDS011;54636;51.684;5.142;2023-05-10T03:07:45;63.60;;;33.78;;
67839;SDS011;54636;51.684;5.142;2023-05-10T03:10:12;64.28;;;35.75;;
67839;SDS011;54636;51.684;5.142;2023-05-10T03:17:47;68.93;;;34.60;;
67839;SDS011;54636;51.684;5.142;2023-05-10T03:20:22;69.07;;;34.20;;
67839;SDS011;54636;51.684;5.142;2023-05-10T03:25:25;57.88;;;30.45;;
67839;SDS011;54636;51.684;5.142;2023-05-10T03:27:51;58.97;;;31.52;;
67839;SDS011;54636;51.684;5.142;2023-05-10T03:30:17;61.08;;;31.88;;
67839;SDS011;54636;51.684;5.142;2023-05-10T03:32:44;55.58;;;31.90;;
67839;SDS011;54636;51.684;5.142;2023-05-10T03:35:11;53.97;;;31.25;;
67839;SDS011;54636;51.684;5.142;2023-05-10T03:37:38;56.50;;;30.67;;
67839;SDS011;54636;51.684;5.142;2023-05-10T03:40:03;67.90;;;34.25;;
67839;SDS011;54636;51.684;5.142;2023-05-10T03:42:30;58.05;;;32.03;;
67839;SDS011;54636;51.684;5.142;2023-05-10T03:44:55;62.20;;;30.73;;
67839;SDS011;54636;51.684;5.142;2023-05-10T03:47:21;63.30;;;31.95;;
67839;SDS011;54636;51.684;5.142;2023-05-10T03:49:46;64.10;;;33.20;;
67839;SDS011;54636;51.684;5.142;2023-05-10T03:52:11;54.22;;;30.63;;
67839;SDS011;54636;51.684;5.142;2023-05-10T03:54:37;53.00;;;30.60;;
67839;SDS011;54636;51.684;5.142;2023-05-10T03:57:03;58.75;;;31.88;;
67839;SDS011;54636;51.684;5.142;2023-05-10T03:59:28;58.75;;;30.92;;
67839;SDS011;54636;51.684;5.142;2023-05-10T04:01:54;64.53;;;30.80;;
67839;SDS011;54636;51.684;5.142;2023-05-10T04:04:20;55.85;;;31.00;;
67839;SDS011;54636;51.684;5.142;2023-05-10T04:06:46;58.25;;;29.25;;
67839;SDS011;54636;51.684;5.142;2023-05-10T04:09:12;57.03;;;31.00;;
67839;SDS011;54636;51.684;5.142;2023-05-10T04:11:37;60.28;;;28.50;;
67839;SDS011;54636;51.684;5.142;2023-05-10T04:14:02;59.70;;;32.55;;
67839;SDS011;54636;51.684;5.142;2023-05-10T04:16:28;52.80;;;32.00;;
67839;SDS011;54636;51.684;5.142;2023-05-10T04:18:53;53.08;;;34.60;;
67839;SDS011;54636;51.684;5.142;2023-05-10T04:21:18;52.92;;;31.05;;
67839;SDS011;54636;51.684;5.142;2023-05-10T04:23:45;60.70;;;34.50;;
67839;SDS011;54636;51.684;5.142;2023-05-10T04:26:10;52.78;;;33.20;;
67839;SDS011;54636;51.684;5.142;2023-05-10T04:28:36;58.50;;;35.45;;
67839;SDS011;54636;51.684;5.142;2023-05-10T04:31:05;53.63;;;34.70;;
67839;SDS011;54636;51.684;5.142;2023-05-10T04:33:31;53.85;;;34.90;;
67839;SDS011;54636;51.684;5.142;2023-05-10T04:35:57;50.38;;;30.67;;
67839;SDS011;54636;51.684;5.142;2023-05-10T04:38:23;50.78;;;32.97;;
67839;SDS011;54636;51.684;5.142;2023-05-10T04:40:48;53.75;;;30.85;;
67839;SDS011;54636;51.684;5.142;2023-05-10T04:43:14;62.03;;;33.95;;
67839;SDS011;54636;51.684;5.142;2023-05-10T04:45:39;53.88;;;31.67;;
67839;SDS011;54636;51.684;5.142;2023-05-10T04:48:05;47.20;;;29.05;;
67839;SDS011;54636;51.684;5.142;2023-05-10T04:50:30;54.60;;;30.27;;
67839;SDS011;54636;51.684;5.142;2023-05-10T04:52:56;49.88;;;29.00;;
67839;SDS011;54636;51.684;5.142;2023-05-10T04:55:23;47.13;;;29.55;;
67839;SDS011;54636;51.684;5.142;2023-05-10T04:57:48;44.42;;;29.13;;
67839;SDS011;54636;51.684;5.142;2023-05-10T05:00:14;43.55;;;27.85;;
67839;SDS011;54636;51.684;5.142;2023-05-10T05:02:43;36.80;;;24.13;;
67839;SDS011;54636;51.684;5.142;2023-05-10T05:05:12;39.72;;;25.85;;
67839;SDS011;54636;51.684;5.142;2023-05-10T05:07:37;41.65;;;26.60;;
67839;SDS011;54636;51.684;5.142;2023-05-10T05:10:06;41.47;;;26.20;;
67839;SDS011;54636;51.684;5.142;2023-05-10T05:12:33;45.47;;;25.73;;
67839;SDS011;54636;51.684;5.142;2023-05-10T05:14:59;41.35;;;24.67;;
67839;SDS011;54636;51.684;5.142;2023-05-10T05:17:25;40.13;;;24.17;;
67839;SDS011;54636;51.684;5.142;2023-05-10T05:19:50;43.33;;;25.25;;
67839;SDS011;54636;51.684;5.142;2023-05-10T05:22:16;39.50;;;23.88;;
67839;SDS011;54636;51.684;5.142;2023-05-10T05:24:41;37.33;;;24.02;;
67839;SDS011;54636;51.684;5.142;2023-05-10T05:27:07;36.13;;;23.73;;
67839;SDS011;54636;51.684;5.142;2023-05-10T05:29:32;39.63;;;23.50;;
67839;SDS011;54636;51.684;5.142;2023-05-10T05:31:58;36.80;;;23.45;;
67839;SDS011;54636;51.684;5.142;2023-05-10T05:34:24;32.17;;;22.10;;
67839;SDS011;54636;51.684;5.142;2023-05-10T05:36:50;38.72;;;23.70;;
67839;SDS011;54636;51.684;5.142;2023-05-10T05:39:16;34.92;;;22.20;;
67839;SDS011;54636;51.684;5.142;2023-05-10T05:41:41;40.67;;;24.17;;
67839;SDS011;54636;51.684;5.142;2023-05-10T05:44:07;37.25;;;22.60;;
67839;SDS011;54636;51.684;5.142;2023-05-10T05:46:32;41.33;;;24.80;;
67839;SDS011;54636;51.684;5.142;2023-05-10T05:48:58;41.63;;;23.23;;
67839;SDS011;54636;51.684;5.142;2023-05-10T05:51:23;35.70;;;22.70;;
67839;SDS011;54636;51.684;5.142;2023-05-10T05:53:49;36.65;;;23.70;;
67839;SDS011;54636;51.684;5.142;2023-05-10T05:56:14;33.00;;;22.08;;
67839;SDS011;54636;51.684;5.142;2023-05-10T05:58:39;39.47;;;22.45;;
67839;SDS011;54636;51.684;5.142;2023-05-10T06:01:05;41.33;;;23.50;;
67839;SDS011;54636;51.684;5.142;2023-05-10T06:03:30;38.58;;;24.50;;
67839;SDS011;54636;51.684;5.142;2023-05-10T06:05:56;35.60;;;22.90;;
67839;SDS011;54636;51.684;5.142;2023-05-10T06:08:21;35.70;;;23.02;;
67839;SDS011;54636;51.684;5.142;2023-05-10T06:10:47;36.08;;;23.27;;
67839;SDS011;54636;51.684;5.142;2023-05-10T06:13:12;40.35;;;24.40;;
67839;SDS011;54636;51.684;5.142;2023-05-10T06:15:38;35.03;;;22.90;;
67839;SDS011;54636;51.684;5.142;2023-05-10T06:18:03;36.63;;;23.58;;
67839;SDS011;54636;51.684;5.142;2023-05-10T06:20:29;38.95;;;25.05;;
67839;SDS011;54636;51.684;5.142;2023-05-10T06:22:56;45.63;;;28.58;;
67839;SDS011;54636;51.684;5.142;2023-05-10T06:25:22;44.67;;;27.20;;
67839;SDS011;54636;51.684;5.142;2023-05-10T06:27:47;43.33;;;28.30;;
67839;SDS011;54636;51.684;5.142;2023-05-10T06:30:13;37.10;;;26.85;;
67839;SDS011;54636;51.684;5.142;2023-05-10T06:32:39;44.55;;;28.23;;
67839;SDS011;54636;51.684;5.142;2023-05-10T06:35:05;34.20;;;23.10;;
67839;SDS011;54636;51.684;5.142;2023-05-10T06:37:31;32.70;;;23.10;;
67839;SDS011;54636;51.684;5.142;2023-05-10T06:39:56;33.42;;;22.38;;
67839;SDS011;54636;51.684;5.142;2023-05-10T06:42:21;34.67;;;21.88;;
67839;SDS011;54636;51.684;5.142;2023-05-10T06:44:47;34.10;;;20.77;;
67839;SDS011;54636;51.684;5.142;2023-05-10T06:47:12;33.45;;;20.30;;
67839;SDS011;54636;51.684;5.142;2023-05-10T06:49:38;26.23;;;19.02;;
67839;SDS011;54636;51.684;5.142;2023-05-10T06:52:03;30.67;;;20.83;;
67839;SDS011;54636;51.684;5.142;2023-05-10T06:54:29;36.72;;;21.88;;
67839;SDS011;54636;51.684;5.142;2023-05-10T06:56:54;36.53;;;21.38;;
67839;SDS011;54636;51.684;5.142;2023-05-10T06:59:20;31.83;;;19.45;;
67839;SDS011;54636;51.684;5.142;2023-05-10T07:01:46;31.60;;;19.00;;
67839;SDS011;54636;51.684;5.142;2023-05-10T07:04:12;29.02;;;17.05;;
67839;SDS011;54636;51.684;5.142;2023-05-10T07:06:37;26.17;;;15.65;;
67839;SDS011;54636;51.684;5.142;2023-05-10T07:09:03;24.67;;;17.92;;
67839;SDS011;54636;51.684;5.142;2023-05-10T07:11:28;32.17;;;17.83;;
67839;SDS011;54636;51.684;5.142;2023-05-10T07:13:54;29.17;;;19.50;;
67839;SDS011;54636;51.684;5.142;2023-05-10T07:16:19;27.20;;;16.33;;
67839;SDS011;54636;51.684;5.142;2023-05-10T07:18:46;24.92;;;16.05;;
67839;SDS011;54636;51.684;5.142;2023-05-10T07:21:11;23.00;;;16.33;;
67839;SDS011;54636;51.684;5.142;2023-05-10T07:23:37;22.00;;;15.95;;
67839;SDS011;54636;51.684;5.142;2023-05-10T07:26:02;24.05;;;15.85;;
67839;SDS011;54636;51.684;5.142;2023-05-10T07:28:28;20.50;;;16.42;;
67839;SDS011;54636;51.684;5.142;2023-05-10T07:30:53;21.05;;;16.48;;
67839;SDS011;54636;51.684;5.142;2023-05-10T07:33:18;24.25;;;16.55;;
67839;SDS011;54636;51.684;5.142;2023-05-10T07:35:44;22.20;;;16.38;;
67839;SDS011;54636;51.684;5.142;2023-05-10T07:38:09;23.85;;;15.80;;
67839;SDS011;54636;51.684;5.142;2023-05-10T07:40:38;28.58;;;16.17;;
67839;SDS011;54636;51.684;5.142;2023-05-10T07:43:04;21.45;;;14.30;;
67839;SDS011;54636;51.684;5.142;2023-05-10T07:45:30;16.15;;;11.52;;
67839;SDS011;54636;51.684;5.142;2023-05-10T07:47:55;15.50;;;11.35;;
67839;SDS011;54636;51.684;5.142;2023-05-10T07:50:20;12.75;;;9.70;;
67839;SDS011;54636;51.684;5.142;2023-05-10T07:52:46;12.70;;;9.18;;
67839;SDS011;54636;51.684;5.142;2023-05-10T07:55:12;11.13;;;8.93;;
67839;SDS011;54636;51.684;5.142;2023-05-10T07:57:38;10.23;;;8.52;;
67839;SDS011;54636;51.684;5.142;2023-05-10T08:00:04;8.75;;;6.60;;
67839;SDS011;54636;51.684;5.142;2023-05-10T08:02:30;8.20;;;6.20;;
67839;SDS011;54636;51.684;5.142;2023-05-10T08:04:55;9.68;;;7.20;;
67839;SDS011;54636;51.684;5.142;2023-05-10T08:07:21;8.88;;;6.93;;
67839;SDS011;54636;51.684;5.142;2023-05-10T08:09:46;13.63;;;7.38;;
67839;SDS011;54636;51.684;5.142;2023-05-10T08:12:12;12.98;;;7.50;;
67839;SDS011;54636;51.684;5.142;2023-05-10T08:14:37;7.53;;;4.95;;
67839;SDS011;54636;51.684;5.142;2023-05-10T08:17:03;5.25;;;4.75;;
67839;SDS011;54636;51.684;5.142;2023-05-10T08:19:28;9.80;;;6.00;;
67839;SDS011;54636;51.684;5.142;2023-05-10T08:21:54;4.88;;;4.38;;
67839;SDS011;54636;51.684;5.142;2023-05-10T08:24:20;10.02;;;4.88;;
67839;SDS011;54636;51.684;5.142;2023-05-10T08:26:46;7.10;;;4.10;;
67839;SDS011;54636;51.684;5.142;2023-05-10T08:29:12;5.82;;;4.22;;
67839;SDS011;54636;51.684;5.142;2023-05-10T08:31:38;5.57;;;4.20;;
67839;SDS011;54636;51.684;5.142;2023-05-10T08:34:03;5.22;;;4.15;;
67839;SDS011;54636;51.684;5.142;2023-05-10T08:36:29;6.88;;;4.10;;
67839;SDS011;54636;51.684;5.142;2023-05-10T08:38:54;4.75;;;4.32;;
67839;SDS011;54636;51.684;5.142;2023-05-10T08:41:20;6.07;;;4.90;;
67839;SDS011;54636;51.684;5.142;2023-05-10T08:43:46;5.35;;;4.85;;
67839;SDS011;54636;51.684;5.142;2023-05-10T08:46:16;7.60;;;4.75;;
67839;SDS011;54636;51.684;5.142;2023-05-10T08:48:46;5.25;;;4.75;;
67839;SDS011;54636;51.684;5.142;2023-05-10T08:51:13;12.75;;;5.88;;
67839;SDS011;54636;51.684;5.142;2023-05-10T08:53:42;7.78;;;5.10;;
67839;SDS011;54636;51.684;5.142;2023-05-10T08:56:09;5.55;;;4.53;;
67839;SDS011;54636;51.684;5.142;2023-05-10T08:58:34;7.07;;;4.88;;
67839;SDS011;54636;51.684;5.142;2023-05-10T09:01:01;5.45;;;4.70;;
67839;SDS011;54636;51.684;5.142;2023-05-10T09:03:28;8.80;;;4.50;;
67839;SDS011;54636;51.684;5.142;2023-05-10T09:05:53;7.82;;;5.75;;
67839;SDS011;54636;51.684;5.142;2023-05-10T09:08:20;5.60;;;5.07;;
67839;SDS011;54636;51.684;5.142;2023-05-10T09:10:50;6.22;;;5.40;;
67839;SDS011;54636;51.684;5.142;2023-05-10T09:13:16;6.78;;;5.28;;
67839;SDS011;54636;51.684;5.142;2023-05-10T09:15:43;5.95;;;5.45;;
67839;SDS011;54636;51.684;5.142;2023-05-10T09:18:09;12.82;;;5.68;;
67839;SDS011;54636;51.684;5.142;2023-05-10T09:20:34;6.57;;;5.60;;
67839;SDS011;54636;51.684;5.142;2023-05-10T09:23:00;7.32;;;5.47;;
67839;SDS011;54636;51.684;5.142;2023-05-10T09:25:25;8.52;;;5.25;;
67839;SDS011;54636;51.684;5.142;2023-05-10T09:27:52;7.47;;;5.45;;
67839;SDS011;54636;51.684;5.142;2023-05-10T09:30:27;6.00;;;5.50;;
67839;SDS011;54636;51.684;5.142;2023-05-10T09:32:54;5.65;;;5.25;;
67839;SDS011;54636;51.684;5.142;2023-05-10T09:35:21;6.18;;;5.57;;
67839;SDS011;54636;51.684;5.142;2023-05-10T09:37:49;5.53;;;5.07;;
67839;SDS011;54636;51.684;5.142;2023-05-10T09:43:03;6.18;;;5.07;;
67839;SDS011;54636;51.684;5.142;2023-05-10T09:45:31;5.30;;;4.93;;
67839;SDS011;54636;51.684;5.142;2023-05-10T09:47:57;13.80;;;4.80;;
67839;SDS011;54636;51.684;5.142;2023-05-10T09:50:24;5.20;;;3.95;;
67839;SDS011;54636;51.684;5.142;2023-05-10T09:52:57;9.75;;;4.93;;
67839;SDS011;54636;51.684;5.142;2023-05-10T09:55:25;4.35;;;3.97;;
67839;SDS011;54636;51.684;5.142;2023-05-10T09:58:06;10.38;;;4.45;;
67839;SDS011;54636;51.684;5.142;2023-05-10T10:00:41;8.07;;;4.25;;
67839;SDS011;54636;51.684;5.142;2023-05-10T10:03:18;4.20;;;3.72;;
67839;SDS011;54636;51.684;5.142;2023-05-10T10:05:45;9.00;;;3.50;;
67839;SDS011;54636;51.684;5.142;2023-05-10T10:08:13;6.32;;;3.90;;
67839;SDS011;54636;51.684;5.142;2023-05-10T10:10:39;4.80;;;4.30;;
67839;SDS011;54636;51.684;5.142;2023-05-10T10:13:05;6.68;;;4.65;;
67839;SDS011;54636;51.684;5.142;2023-05-10T10:15:31;5.15;;;3.90;;
67839;SDS011;54636;51.684;5.142;2023-05-10T10:17:58;5.22;;;3.95;;
67839;SDS011;54636;51.684;5.142;2023-05-10T10:20:24;4.45;;;3.83;;
67839;SDS011;54636;51.684;5.142;2023-05-10T10:22:50;7.18;;;4.07;;
67839;SDS011;54636;51.684;5.142;2023-05-10T10:25:16;6.28;;;4.00;;
67839;SDS011;54636;51.684;5.142;2023-05-10T10:27:45;7.45;;;4.18;;
67839;SDS011;54636;51.684;5.142;2023-05-10T10:35:44;7.32;;;4.07;;
67839;SDS011;54636;51.684;5.142;2023-05-10T10:38:12;5.20;;;4.05;;
67839;SDS011;54636;51.684;5.142;2023-05-10T10:40:38;5.63;;;4.03;;
67839;SDS011;54636;51.684;5.142;2023-05-10T10:48:36;4.55;;;3.13;;
67839;SDS011;54636;51.684;5.142;2023-05-10T10:51:02;5.18;;;3.47;;
67839;SDS011;54636;51.684;5.142;2023-05-10T10:53:27;3.45;;;2.97;;
67839;SDS011;54636;51.684;5.142;2023-05-10T10:56:07;3.55;;;2.63;;
67839;SDS011;54636;51.684;5.142;2023-05-10T10:58:34;3.22;;;2.83;;
67839;SDS011;54636;51.684;5.142;2023-05-10T11:01:10;3.00;;;2.53;;
67839;SDS011;54636;51.684;5.142;2023-05-10T11:03:37;2.72;;;2.17;;
67839;SDS011;54636;51.684;5.142;2023-05-10T11:06:02;4.53;;;2.22;;
67839;SDS011;54636;51.684;5.142;2023-05-10T11:08:29;3.13;;;1.83;;
67839;SDS011;54636;51.684;5.142;2023-05-10T11:13:28;2.28;;;2.05;;
67839;SDS011;54636;51.684;5.142;2023-05-10T11:18:38;3.75;;;2.40;;
67839;SDS011;54636;51.684;5.142;2023-05-10T11:21:04;3.72;;;2.40;;
67839;SDS011;54636;51.684;5.142;2023-05-10T11:26:08;2.30;;;2.17;;
67839;SDS011;54636;51.684;5.142;2023-05-10T11:28:43;2.25;;;2.05;;
67839;SDS011;54636;51.684;5.142;2023-05-10T11:31:10;3.58;;;2.60;;
67839;SDS011;54636;51.684;5.142;2023-05-10T11:36:28;3.67;;;3.38;;
67839;SDS011;54636;51.684;5.142;2023-05-10T11:38:57;6.72;;;3.28;;
67839;SDS011;54636;51.684;5.142;2023-05-10T11:41:23;4.10;;;3.33;;
67839;SDS011;54636;51.684;5.142;2023-05-10T11:43:50;4.70;;;3.38;;
67839;SDS011;54636;51.684;5.142;2023-05-10T11:46:18;4.55;;;3.35;;
67839;SDS011;54636;51.684;5.142;2023-05-10T11:48:45;3.33;;;3.10;;
67839;SDS011;54636;51.684;5.142;2023-05-10T11:51:12;4.70;;;3.83;;
67839;SDS011;54636;51.684;5.142;2023-05-10T11:53:37;3.83;;;3.53;;
67839;SDS011;54636;51.684;5.142;2023-05-10T11:56:06;4.80;;;4.32;;
67839;SDS011;54636;51.684;5.142;2023-05-10T11:58:33;5.75;;;4.70;;
67839;SDS011;54636;51.684;5.142;2023-05-10T12:01:00;4.55;;;3.92;;
67839;SDS011;54636;51.684;5.142;2023-05-10T12:03:29;5.75;;;3.50;;
67839;SDS011;54636;51.684;5.142;2023-05-10T12:05:55;3.65;;;3.45;;
67839;SDS011;54636;51.684;5.142;2023-05-10T12:08:22;8.32;;;3.63;;
67839;SDS011;54636;51.684;5.142;2023-05-10T12:10:52;3.97;;;3.60;;
67839;SDS011;54636;51.684;5.142;2023-05-10T12:13:18;3.58;;;3.28;;
67839;SDS011;54636;51.684;5.142;2023-05-10T12:15:46;5.97;;;3.72;;
67839;SDS011;54636;51.684;5.142;2023-05-10T12:18:12;4.10;;;3.90;;
67839;SDS011;54636;51.684;5.142;2023-05-10T12:20:39;3.97;;;3.65;;
67839;SDS011;54636;51.684;5.142;2023-05-10T12:23:05;4.50;;;3.45;;
67839;SDS011;54636;51.684;5.142;2023-05-10T12:25:33;4.40;;;4.00;;
67839;SDS011;54636;51.684;5.142;2023-05-10T12:28:02;5.00;;;3.40;;
67839;SDS011;54636;51.684;5.142;2023-05-10T12:30:30;3.53;;;3.22;;
67839;SDS011;54636;51.684;5.142;2023-05-10T12:33:10;3.42;;;3.13;;
67839;SDS011;54636;51.684;5.142;2023-05-10T12:35:46;6.00;;;3.53;;
67839;SDS011;54636;51.684;5.142;2023-05-10T12:38:27;3.63;;;3.05;;
67839;SDS011;54636;51.684;5.142;2023-05-10T12:40:54;4.60;;;3.75;;
67839;SDS011;54636;51.684;5.142;2023-05-10T12:43:21;4.60;;;4.30;;
67839;SDS011;54636;51.684;5.142;2023-05-10T12:45:46;4.72;;;4.30;;
67839;SDS011;54636;51.684;5.142;2023-05-10T12:48:13;4.38;;;3.97;;
67839;SDS011;54636;51.684;5.142;2023-05-10T12:50:39;6.68;;;4.20;;
67839;SDS011;54636;51.684;5.142;2023-05-10T12:53:05;5.90;;;5.30;;
67839;SDS011;54636;51.684;5.142;2023-05-10T12:55:30;6.10;;;5.55;;
67839;SDS011;54636;51.684;5.142;2023-05-10T12:57:55;6.57;;;6.07;;
67839;SDS011;54636;51.684;5.142;2023-05-10T13:00:21;7.40;;;5.57;;
67839;SDS011;54636;51.684;5.142;2023-05-10T13:02:46;8.75;;;5.40;;
67839;SDS011;54636;51.684;5.142;2023-05-10T13:05:12;4.70;;;4.38;;
67839;SDS011;54636;51.684;5.142;2023-05-10T13:07:38;6.15;;;4.90;;
67839;SDS011;54636;51.684;5.142;2023-05-10T13:10:04;4.68;;;4.28;;
67839;SDS011;54636;51.684;5.142;2023-05-10T13:12:31;7.50;;;5.15;;
67839;SDS011;54636;51.684;5.142;2023-05-10T13:14:56;6.50;;;4.97;;
67839;SDS011;54636;51.684;5.142;2023-05-10T13:17:21;5.45;;;4.80;;
67839;SDS011;54636;51.684;5.142;2023-05-10T13:19:47;5.13;;;4.28;;
67839;SDS011;54636;51.684;5.142;2023-05-10T13:22:13;4.97;;;4.10;;
67839;SDS011;54636;51.684;5.142;2023-05-10T13:24:38;9.63;;;4.22;;
67839;SDS011;54636;51.684;5.142;2023-05-10T13:27:03;4.00;;;3.67;;
67839;SDS011;54636;51.684;5.142;2023-05-10T13:29:29;4.97;;;3.80;;
67839;SDS011;54636;51.684;5.142;2023-05-10T13:31:54;4.60;;;3.97;;
67839;SDS011;54636;51.684;5.142;2023-05-10T13:34:20;7.88;;;4.00;;
67839;SDS011;54636;51.684;5.142;2023-05-10T13:36:46;7.35;;;3.50;;
67839;SDS011;54636;51.684;5.142;2023-05-10T13:39:12;4.93;;;3.15;;
67839;SDS011;54636;51.684;5.142;2023-05-10T13:41:37;6.10;;;3.25;;
67839;SDS011;54636;51.684;5.142;2023-05-10T13:44:03;3.42;;;2.80;;
67839;SDS011;54636;51.684;5.142;2023-05-10T13:46:29;3.08;;;2.80;;
67839;SDS011;54636;51.684;5.142;2023-05-10T13:48:55;8.02;;;2.92;;
67839;SDS011;54636;51.684;5.142;2023-05-10T13:51:21;7.30;;;3.25;;
67839;SDS011;54636;51.684;5.142;2023-05-10T13:53:47;4.53;;;3.72;;
67839;SDS011;54636;51.684;5.142;2023-05-10T13:56:13;4.03;;;3.47;;
67839;SDS011;54636;51.684;5.142;2023-05-10T13:58:38;4.75;;;3.58;;
67839;SDS011;54636;51.684;5.142;2023-05-10T14:01:04;7.53;;;3.58;;
67839;SDS011;54636;51.684;5.142;2023-05-10T14:03:30;3.35;;;2.80;;
67839;SDS011;54636;51.684;5.142;2023-05-10T14:05:55;3.38;;;2.75;;
67839;SDS011;54636;51.684;5.142;2023-05-10T14:08:21;5.30;;;2.90;;
67839;SDS011;54636;51.684;5.142;2023-05-10T14:10:47;3.95;;;2.80;;
67839;SDS011;54636;51.684;5.142;2023-05-10T14:13:13;6.07;;;3.05;;
67839;SDS011;54636;51.684;5.142;2023-05-10T14:15:40;3.00;;;2.70;;
67839;SDS011;54636;51.684;5.142;2023-05-10T14:18:06;6.60;;;3.40;;
67839;SDS011;54636;51.684;5.142;2023-05-10T14:20:31;4.70;;;3.53;;
67839;SDS011;54636;51.684;5.142;2023-05-10T14:22:58;5.10;;;2.88;;
67839;SDS011;54636;51.684;5.142;2023-05-10T14:25:24;5.32;;;2.90;;
67839;SDS011;54636;51.684;5.142;2023-05-10T14:27:50;3.05;;;2.72;;
67839;SDS011;54636;51.684;5.142;2023-05-10T14:30:16;5.82;;;2.53;;
67839;SDS011;54636;51.684;5.142;2023-05-10T14:32:41;3.67;;;2.65;;
67839;SDS011;54636;51.684;5.142;2023-05-10T14:35:07;3.33;;;2.28;;
67839;SDS011;54636;51.684;5.142;2023-05-10T14:37:32;2.28;;;1.90;;
67839;SDS011;54636;51.684;5.142;2023-05-10T14:39:58;2.13;;;1.95;;
67839;SDS011;54636;51.684;5.142;2023-05-10T14:42:24;2.38;;;1.58;;
67839;SDS011;54636;51.684;5.142;2023-05-10T14:44:49;1.58;;;1.27;;
67839;SDS011;54636;51.684;5.142;2023-05-10T14:47:15;3.10;;;1.38;;
67839;SDS011;54636;51.684;5.142;2023-05-10T14:49:40;1.65;;;1.45;;
67839;SDS011;54636;51.684;5.142;2023-05-10T14:52:06;2.60;;;1.60;;
67839;SDS011;54636;51.684;5.142;2023-05-10T14:54:31;3.83;;;1.77;;
67839;SDS011;54636;51.684;5.142;2023-05-10T14:56:58;3.83;;;2.80;;
67839;SDS011;54636;51.684;5.142;2023-05-10T14:59:25;2.97;;;2.17;;
67839;SDS011;54636;51.684;5.142;2023-05-10T15:01:50;3.25;;;2.00;;
67839;SDS011;54636;51.684;5.142;2023-05-10T15:04:16;4.78;;;1.70;;
67839;SDS011;54636;51.684;5.142;2023-05-10T15:06:41;7.05;;;2.63;;
67839;SDS011;54636;51.684;5.142;2023-05-10T15:09:07;4.32;;;2.10;;
67839;SDS011;54636;51.684;5.142;2023-05-10T15:11:32;12.25;;;3.13;;
67839;SDS011;54636;51.684;5.142;2023-05-10T15:13:58;3.33;;;2.28;;
67839;SDS011;54636;51.684;5.142;2023-05-10T15:16:23;2.33;;;2.13;;
67839;SDS011;54636;51.684;5.142;2023-05-10T15:18:49;2.72;;;2.55;;
67839;SDS011;54636;51.684;5.142;2023-05-10T15:21:15;2.58;;;2.38;;
67839;SDS011;54636;51.684;5.142;2023-05-10T15:23:40;2.88;;;2.22;;
67839;SDS011;54636;51.684;5.142;2023-05-10T15:26:05;4.40;;;2.10;;